createdAt,value
2023-01-03T00:02:20.961Z,98.44
2023-01-03T00:04:49.676Z,98.41
2023-01-03T00:07:33.640Z,98.29
2023-01-03T00:10:02.693Z,98.55
2023-01-03T00:12:31.365Z,98.06
2023-01-03T00:14:59.480Z,98.31
2023-01-03T00:17:26.751Z,98.06
2023-01-03T00:19:53.556Z,98.53
2023-01-03T00:22:20.915Z,99.02
2023-01-03T00:24:49.327Z,99.64
2023-01-03T00:27:16.693Z,99.54
2023-01-03T00:29:43.367Z,99.73
2023-01-03T00:32:10.370Z,99.84
2023-01-03T00:34:37.099Z,100.00
2023-01-03T00:37:04.090Z,100.00
2023-01-03T00:39:30.749Z,100.00
2023-01-03T00:41:57.389Z,100.00
2023-01-03T00:44:23.995Z,99.88
2023-01-03T00:46:50.615Z,99.82
2023-01-03T00:49:17.345Z,100.00
2023-01-03T00:51:44.333Z,99.76
2023-01-03T00:54:12.851Z,99.96
2023-01-03T00:56:42.430Z,100.00
2023-01-03T00:59:09.932Z,100.00
2023-01-03T01:01:46.592Z,100.00
2023-01-03T01:04:16.639Z,100.00
2023-01-03T01:06:46.407Z,100.00
2023-01-03T01:09:22.703Z,100.00
2023-01-03T01:11:50.359Z,100.00
2023-01-03T01:14:21.097Z,100.00
2023-01-03T01:16:51.885Z,100.00
2023-01-03T01:19:20.888Z,100.00
2023-01-03T01:21:47.484Z,100.00
2023-01-03T01:24:18.071Z,100.00
2023-01-03T01:26:46.269Z,100.00
2023-01-03T01:29:14.235Z,100.00
2023-01-03T01:31:41.512Z,100.00
2023-01-03T01:34:08.625Z,100.00
2023-01-03T01:36:41.890Z,100.00
2023-01-03T01:39:13.163Z,100.00
2023-01-03T01:41:58.980Z,100.00
2023-01-03T01:44:49.883Z,100.00
2023-01-03T01:47:26.136Z,100.00
2023-01-03T01:50:05.483Z,100.00
2023-01-03T01:52:35.522Z,100.00
2023-01-03T01:55:04.582Z,100.00
2023-01-03T01:57:31.604Z,100.00
2023-01-03T01:59:58.587Z,100.00
2023-01-03T02:02:25.325Z,100.00
2023-01-03T02:04:55.974Z,100.00
2023-01-03T02:07:22.900Z,100.00
2023-01-03T02:09:55.401Z,100.00
2023-01-03T02:12:52.747Z,100.00
2023-01-03T02:15:31.040Z,100.00
2023-01-03T02:18:13.850Z,100.00
2023-01-03T02:21:20.120Z,100.00
2023-01-03T02:24:10.172Z,100.00
2023-01-03T02:26:58.275Z,100.00
2023-01-03T02:29:24.839Z,100.00
2023-01-03T02:32:14.160Z,100.00
2023-01-03T02:35:16.196Z,100.00
2023-01-03T02:38:04.092Z,100.00
2023-01-03T02:40:37.999Z,100.00
2023-01-03T02:43:21.984Z,100.00
2023-01-03T02:45:51.181Z,100.00
2023-01-03T02:48:36.247Z,100.00
2023-01-03T02:51:14.075Z,100.00
2023-01-03T02:53:47.531Z,100.00
2023-01-03T02:56:20.856Z,100.00
2023-01-03T02:58:53.036Z,100.00
2023-01-03T03:01:20.843Z,100.00
2023-01-03T03:03:48.535Z,100.00
2023-01-03T03:06:35.320Z,100.00
2023-01-03T03:09:02.010Z,100.00
2023-01-03T03:11:52.514Z,100.00
2023-01-03T03:14:30.692Z,100.00
2023-01-03T03:17:03.715Z,100.00
2023-01-03T03:19:55.753Z,100.00
2023-01-03T03:22:57.494Z,100.00
2023-01-03T03:25:33.228Z,100.00
2023-01-03T03:28:27.567Z,100.00
2023-01-03T03:30:58.754Z,100.00
2023-01-03T03:33:28.982Z,100.00
2023-01-03T03:36:03.301Z,100.00
2023-01-03T03:38:43.961Z,100.00
2023-01-03T03:41:47.130Z,100.00
2023-01-03T03:44:44.810Z,100.00
2023-01-03T03:47:25.657Z,100.00
2023-01-03T03:49:55.893Z,100.00
2023-01-03T03:52:28.014Z,100.00
2023-01-03T03:55:01.966Z,100.00
2023-01-03T03:57:33.913Z,100.00
2023-01-03T04:00:09.599Z,100.00
2023-01-03T04:02:37.882Z,100.00
2023-01-03T04:05:09.751Z,100.00
2023-01-03T04:07:36.799Z,100.00
2023-01-03T04:10:05.087Z,100.00
2023-01-03T04:12:31.779Z,100.00
2023-01-03T04:14:58.401Z,100.00
2023-01-03T04:17:25.066Z,100.00
2023-01-03T04:19:51.892Z,100.00
2023-01-03T04:22:18.478Z,100.00
2023-01-03T04:24:45.092Z,100.00
2023-01-03T04:27:11.657Z,100.00
2023-01-03T04:29:39.653Z,100.00
2023-01-03T04:32:07.507Z,100.00
2023-01-03T04:34:34.084Z,100.00
2023-01-03T04:37:00.756Z,100.00
2023-01-03T04:39:27.330Z,100.00
2023-01-03T04:41:53.913Z,100.00
2023-01-03T04:44:20.548Z,100.00
2023-01-03T04:46:52.577Z,100.00
2023-01-03T04:49:20.486Z,100.00
2023-01-03T04:51:47.124Z,100.00
2023-01-03T04:54:13.767Z,100.00
2023-01-03T04:56:40.387Z,100.00
2023-01-03T04:59:07.051Z,100.00
2023-01-03T05:01:33.879Z,100.00
2023-01-03T05:04:02.381Z,100.00
2023-01-03T05:06:29.474Z,100.00
2023-01-03T05:08:56.110Z,100.00
2023-01-03T05:11:23.027Z,100.00
2023-01-03T05:13:49.707Z,100.00
2023-01-03T05:16:16.672Z,100.00
2023-01-03T05:18:43.372Z,100.00
2023-01-03T05:21:36.587Z,100.00
2023-01-03T05:24:22.040Z,100.00
2023-01-03T05:26:48.985Z,100.00
2023-01-03T05:29:19.241Z,100.00
2023-01-03T05:31:45.943Z,100.00
2023-01-03T05:34:12.737Z,100.00
2023-01-03T05:36:39.761Z,100.00
2023-01-03T05:39:06.773Z,100.00
2023-01-03T05:41:52.143Z,100.00
2023-01-03T05:44:18.784Z,100.00
2023-01-03T05:46:45.394Z,100.00
2023-01-03T05:49:12.150Z,100.00
2023-01-03T05:51:39.109Z,100.00
2023-01-03T05:54:06.170Z,100.00
2023-01-03T05:56:33.375Z,100.00
2023-01-03T05:59:00.553Z,100.00
2023-01-03T06:01:28.550Z,100.00
2023-01-03T06:03:55.810Z,100.00
2023-01-03T06:06:22.619Z,100.00
2023-01-03T06:08:49.635Z,100.00
2023-01-03T06:11:17.497Z,100.00
2023-01-03T06:13:44.691Z,100.00
2023-01-03T06:16:35.943Z,100.00
2023-01-03T06:19:04.479Z,100.00
2023-01-03T06:21:31.156Z,100.00
2023-01-03T06:23:57.797Z,100.00
2023-01-03T06:26:25.128Z,100.00
2023-01-03T06:28:52.556Z,100.00
2023-01-03T06:31:19.731Z,100.00
2023-01-03T06:33:47.409Z,100.00
2023-01-03T06:36:16.312Z,100.00
2023-01-03T06:38:43.255Z,100.00
2023-01-03T06:41:10.916Z,100.00
2023-01-03T06:43:37.693Z,100.00
2023-01-03T06:46:23.400Z,100.00
2023-01-03T06:49:08.644Z,100.00
2023-01-03T06:51:53.831Z,100.00
2023-01-03T06:54:29.201Z,100.00
2023-01-03T06:56:56.115Z,100.00
2023-01-03T06:59:23.345Z,100.00
2023-01-03T07:01:51.437Z,100.00
2023-01-03T07:04:19.296Z,100.00
2023-01-03T07:06:46.178Z,100.00
2023-01-03T07:09:13.731Z,100.00
2023-01-03T07:11:41.246Z,100.00
2023-01-03T07:14:09.206Z,100.00
2023-01-03T07:16:37.580Z,100.00
2023-01-03T07:19:05.980Z,100.00
2023-01-03T07:21:34.390Z,100.00
2023-01-03T07:24:03.022Z,100.00
2023-01-03T07:26:32.208Z,100.00
2023-01-03T07:28:59.993Z,100.00
2023-01-03T07:31:26.923Z,100.00
2023-01-03T07:33:53.746Z,100.00
2023-01-03T07:36:21.769Z,100.00
2023-01-03T07:38:48.751Z,100.00
2023-01-03T07:41:16.700Z,100.00
2023-01-03T07:43:46.238Z,98.24
2023-01-03T07:46:17.083Z,97.69
2023-01-03T07:48:45.391Z,97.06
2023-01-03T07:51:15.671Z,96.74
2023-01-03T07:53:42.932Z,94.47
2023-01-03T07:56:15.742Z,92.72
2023-01-03T07:58:44.373Z,93.20
2023-01-03T08:01:14.380Z,91.93
2023-01-03T08:03:41.878Z,92.27
2023-01-03T08:06:14.242Z,92.91
2023-01-03T08:08:41.082Z,93.03
2023-01-03T08:11:30.348Z,89.23
2023-01-03T08:13:57.206Z,88.85
2023-01-03T08:16:23.876Z,87.78
2023-01-03T08:18:50.816Z,87.13
2023-01-03T08:21:17.723Z,86.29
2023-01-03T08:23:44.655Z,83.02
2023-01-03T08:26:16.368Z,82.45
2023-01-03T08:28:44.417Z,80.90
2023-01-03T08:31:21.229Z,79.53
2023-01-03T08:33:54.796Z,78.29
2023-01-03T08:36:23.602Z,75.37
2023-01-03T08:39:02.597Z,77.26
2023-01-03T08:41:33.301Z,75.37
2023-01-03T08:44:02.720Z,76.81
2023-01-03T08:46:30.957Z,79.90
2023-01-03T08:48:57.659Z,80.30
2023-01-03T08:51:26.765Z,79.13
2023-01-03T08:53:53.552Z,79.52
2023-01-03T08:56:20.436Z,79.31
2023-01-03T08:58:48.050Z,78.08
2023-01-03T09:01:14.804Z,78.30
2023-01-03T09:03:41.718Z,76.34
2023-01-03T09:06:08.468Z,75.80
2023-01-03T09:08:35.592Z,73.83
2023-01-03T09:11:06.702Z,70.96
2023-01-03T09:13:34.455Z,71.36
2023-01-03T09:16:08.815Z,67.60
2023-01-03T09:18:36.558Z,70.80
2023-01-03T09:21:05.008Z,68.34
2023-01-03T09:23:32.968Z,63.77
2023-01-03T09:25:59.728Z,60.09
2023-01-03T09:28:26.658Z,58.93
2023-01-03T09:30:53.347Z,57.24
2023-01-03T09:33:20.263Z,58.99
2023-01-03T09:35:46.887Z,56.27
2023-01-03T09:38:13.521Z,56.43
2023-01-03T09:40:45.624Z,56.13
2023-01-03T09:43:25.422Z,52.72
2023-01-03T09:46:01.405Z,53.54
2023-01-03T09:48:35.913Z,55.73
2023-01-03T09:51:24.246Z,53.63
2023-01-03T09:54:07.957Z,54.84
2023-01-03T09:56:53.392Z,57.08
2023-01-03T09:59:38.167Z,55.77
2023-01-03T10:02:44.717Z,57.26
2023-01-03T10:05:48.876Z,50.91
2023-01-03T10:08:38.852Z,51.04
2023-01-03T10:11:09.330Z,50.26
2023-01-03T10:13:38.789Z,49.59
2023-01-03T10:16:21.819Z,50.67
2023-01-03T10:18:51.185Z,49.35
2023-01-03T10:21:37.008Z,52.27
2023-01-03T10:24:17.033Z,52.41
2023-01-03T10:26:43.935Z,50.67
2023-01-03T10:29:18.753Z,45.79
2023-01-03T10:31:47.325Z,46.23
2023-01-03T10:34:13.964Z,46.32
2023-01-03T10:36:40.594Z,44.97
2023-01-03T10:39:11.386Z,43.16
2023-01-03T10:41:46.683Z,41.40
2023-01-03T10:44:30.591Z,39.53
2023-01-03T10:46:59.990Z,39.82
2023-01-03T10:49:31.416Z,43.37
2023-01-03T10:51:58.258Z,46.06
2023-01-03T10:54:52.869Z,48.72
2023-01-03T10:57:59.246Z,48.71
2023-01-03T11:00:36.174Z,47.89
2023-01-03T11:03:13.185Z,44.63
2023-01-03T11:05:42.380Z,42.67
2023-01-03T11:08:19.415Z,41.80
2023-01-03T11:10:53.306Z,39.95
2023-01-03T11:13:33.948Z,38.03
2023-01-03T11:16:03.564Z,37.28
2023-01-03T11:18:31.649Z,37.00
2023-01-03T11:21:04.356Z,35.99
2023-01-03T11:23:33.729Z,36.85
2023-01-03T11:26:12.302Z,37.17
2023-01-03T11:28:54.950Z,35.15
2023-01-03T11:31:44.718Z,34.43
2023-01-03T11:34:48.228Z,36.19
2023-01-03T11:37:33.359Z,34.30
2023-01-03T11:40:14.265Z,31.96
2023-01-03T11:43:13.131Z,32.81
2023-01-03T11:45:58.808Z,33.66
2023-01-03T11:49:00.988Z,33.99
2023-01-03T11:52:09.317Z,35.88
2023-01-03T11:54:54.762Z,37.62
2023-01-03T11:57:27.226Z,39.21
2023-01-03T12:00:06.465Z,39.52
2023-01-03T12:03:02.550Z,37.62
2023-01-03T12:05:29.190Z,35.51
2023-01-03T12:08:08.861Z,35.88
2023-01-03T12:11:09.215Z,35.80
2023-01-03T12:13:44.694Z,35.44
2023-01-03T12:16:39.472Z,38.19
2023-01-03T12:19:22.866Z,36.69
2023-01-03T12:22:01.589Z,38.71
2023-01-03T12:24:28.133Z,37.13
2023-01-03T12:27:27.156Z,35.29
2023-01-03T12:29:56.479Z,34.27
2023-01-03T12:32:39.038Z,32.43
2023-01-03T12:35:12.104Z,32.55
2023-01-03T12:37:40.338Z,32.23
2023-01-03T12:40:45.278Z,34.40
2023-01-03T12:43:22.039Z,32.43
2023-01-03T12:46:12.644Z,32.35
2023-01-03T12:48:54.987Z,33.03
2023-01-03T12:51:24.650Z,32.23
2023-01-03T12:54:03.279Z,32.42
2023-01-03T12:56:43.615Z,33.74
2023-01-03T12:59:47.801Z,34.22
2023-01-03T13:02:40.949Z,33.49
2023-01-03T13:05:13.337Z,32.81
2023-01-03T13:07:46.042Z,33.42
2023-01-03T13:10:19.129Z,34.10
2023-01-03T13:12:54.780Z,35.02
2023-01-03T13:15:37.356Z,34.54
2023-01-03T13:18:22.354Z,33.65
2023-01-03T13:20:50.751Z,34.04
2023-01-03T13:23:59.822Z,34.69
2023-01-03T13:26:28.275Z,35.56
2023-01-03T13:29:46.791Z,34.80
2023-01-03T13:32:18.368Z,34.63
2023-01-03T13:34:45.107Z,33.89
2023-01-03T13:37:16.260Z,34.49
2023-01-03T13:39:48.050Z,36.68
2023-01-03T13:42:27.452Z,38.26
2023-01-03T13:45:20.225Z,41.58
2023-01-03T13:47:50.311Z,44.64
2023-01-03T13:50:36.825Z,46.70
2023-01-03T13:53:11.018Z,49.08
2023-01-03T13:55:56.888Z,50.81
2023-01-03T13:58:43.295Z,54.08
2023-01-03T14:01:34.628Z,55.53
2023-01-03T14:04:22.962Z,57.54
2023-01-03T14:07:26.792Z,58.91
2023-01-03T14:10:12.394Z,62.07
2023-01-03T14:13:16.472Z,63.96
2023-01-03T14:15:43.117Z,65.17
2023-01-03T14:18:20.974Z,65.71
2023-01-03T14:20:51.287Z,67.65
2023-01-03T14:26:16.189Z,68.87
2023-01-03T14:28:49.309Z,69.79
2023-01-03T14:31:20.554Z,70.81
2023-01-03T14:33:53.439Z,71.74
2023-01-03T14:36:20.132Z,71.96
2023-01-03T14:38:55.233Z,72.99
2023-01-03T14:41:39.317Z,73.45
2023-01-03T14:44:14.558Z,74.61
2023-01-03T14:46:49.975Z,74.94
2023-01-03T14:49:35.288Z,75.65
2023-01-03T14:52:27.852Z,76.31
2023-01-03T14:55:03.439Z,77.31
2023-01-03T14:57:31.433Z,77.81
2023-01-03T15:00:00.970Z,78.54
2023-01-03T15:02:31.237Z,79.28
2023-01-03T15:05:01.132Z,79.99
2023-01-03T15:07:34.751Z,81.17
2023-01-03T15:10:04.359Z,81.88
2023-01-03T15:12:34.961Z,82.22
2023-01-03T15:15:08.984Z,83.38
2023-01-03T15:17:37.352Z,83.50
2023-01-03T15:20:08.588Z,84.48
2023-01-03T15:22:41.185Z,85.22
2023-01-03T15:25:18.514Z,85.36
2023-01-03T15:27:46.755Z,85.74
2023-01-03T15:30:20.842Z,86.57
2023-01-03T15:32:56.264Z,87.25
2023-01-03T15:35:27.873Z,87.91
2023-01-03T15:37:55.399Z,88.37
2023-01-03T15:40:23.244Z,88.91
2023-01-03T15:43:08.995Z,89.38
2023-01-03T15:45:39.068Z,90.34
2023-01-03T15:48:13.939Z,90.84
2023-01-03T15:50:59.781Z,91.58
2023-01-03T15:53:43.611Z,91.44
2023-01-03T15:56:35.639Z,91.67
2023-01-03T15:59:07.879Z,92.38
2023-01-03T16:01:34.580Z,93.12
2023-01-03T16:04:01.368Z,94.09
2023-01-03T16:06:27.996Z,94.48
2023-01-03T16:08:54.644Z,95.02
2023-01-03T16:11:31.444Z,95.93
2023-01-03T16:14:02.831Z,95.61
2023-01-03T16:16:34.975Z,96.04
2023-01-03T16:19:04.557Z,96.28
2023-01-03T16:21:31.963Z,96.63
2023-01-03T16:23:59.177Z,96.64
2023-01-03T16:26:26.085Z,97.04
2023-01-03T16:28:52.795Z,97.35
2023-01-03T16:31:27.939Z,96.92
2023-01-03T16:33:54.663Z,96.70
2023-01-03T16:36:37.122Z,96.70
2023-01-03T16:39:16.749Z,98.22
2023-01-03T16:42:04.709Z,98.47
2023-01-03T16:44:32.420Z,98.72
2023-01-03T16:46:59.322Z,97.86
2023-01-03T16:49:27.560Z,98.10
2023-01-03T16:51:57.749Z,98.65
2023-01-03T16:54:24.735Z,98.29
2023-01-03T16:56:51.354Z,98.46
2023-01-03T16:59:20.056Z,98.58
2023-01-03T17:01:47.774Z,99.08
2023-01-03T17:04:14.611Z,99.47
2023-01-03T17:06:42.107Z,99.43
2023-01-03T17:09:13.746Z,98.90
2023-01-03T17:11:40.563Z,98.92
2023-01-03T17:14:16.682Z,99.55
2023-01-03T17:16:43.517Z,99.84
2023-01-03T17:19:52.271Z,100.00
2023-01-03T17:22:04.619Z,100.00
2023-01-03T17:24:31.255Z,100.00
2023-01-03T17:27:04.050Z,100.00
2023-01-03T17:29:30.981Z,100.00
2023-01-03T17:31:57.717Z,100.00
2023-01-03T17:34:30.544Z,100.00
2023-01-03T17:36:59.770Z,100.00
2023-01-03T17:39:27.926Z,100.00
2023-01-03T17:42:12.992Z,100.00
2023-01-03T17:44:40.003Z,100.00
2023-01-03T17:47:43.381Z,100.00
2023-01-03T17:50:10.475Z,100.00
2023-01-03T17:52:38.354Z,100.00
2023-01-03T17:55:16.403Z,100.00
2023-01-03T17:57:43.056Z,100.00
2023-01-03T18:00:18.702Z,100.00
2023-01-03T18:02:45.520Z,100.00
2023-01-03T18:05:22.963Z,100.00
2023-01-03T18:07:51.507Z,100.00
2023-01-03T18:10:30.222Z,100.00
2023-01-03T18:12:57.099Z,100.00
2023-01-03T18:15:23.708Z,100.00
2023-01-03T18:17:50.550Z,100.00
2023-01-03T18:20:18.739Z,100.00
2023-01-03T18:22:46.430Z,100.00
2023-01-03T18:25:22.457Z,100.00
2023-01-03T18:28:02.578Z,100.00
2023-01-03T18:30:29.431Z,100.00
2023-01-03T18:32:56.033Z,100.00
2023-01-03T18:35:29.784Z,100.00
2023-01-03T18:38:01.021Z,100.00
2023-01-03T18:40:27.822Z,100.00
2023-01-03T18:43:10.706Z,100.00
2023-01-03T18:45:38.447Z,100.00
2023-01-03T18:48:05.809Z,100.00
2023-01-03T18:50:32.945Z,100.00
2023-01-03T18:53:04.208Z,100.00
2023-01-03T18:55:35.010Z,100.00
2023-01-03T18:58:38.963Z,100.00
2023-01-03T19:01:06.473Z,100.00
2023-01-03T19:03:34.892Z,100.00
2023-01-03T19:06:02.779Z,100.00
2023-01-03T19:08:34.035Z,100.00
2023-01-03T19:11:13.510Z,100.00
2023-01-03T19:13:51.042Z,100.00
2023-01-03T19:16:26.377Z,100.00
2023-01-03T19:18:53.854Z,100.00
2023-01-03T19:21:29.015Z,100.00
2023-01-03T19:24:19.865Z,100.00
2023-01-03T19:27:06.761Z,100.00
2023-01-03T19:29:37.192Z,100.00
2023-01-03T19:32:11.020Z,100.00
2023-01-03T19:34:37.697Z,100.00
2023-01-03T19:37:04.320Z,100.00
2023-01-03T19:39:36.860Z,100.00
2023-01-03T19:42:26.051Z,100.00
2023-01-03T19:44:53.404Z,100.00
2023-01-03T19:47:20.686Z,100.00
2023-01-03T19:49:48.356Z,100.00
2023-01-03T19:52:18.697Z,100.00
2023-01-03T19:54:45.394Z,100.00
2023-01-03T19:57:32.530Z,100.00
2023-01-03T20:00:01.483Z,100.00
2023-01-03T20:02:39.209Z,100.00
2023-01-03T20:05:23.579Z,100.00
2023-01-03T20:07:51.067Z,100.00
2023-01-03T20:10:23.790Z,100.00
2023-01-03T20:12:53.777Z,100.00
2023-01-03T20:15:32.481Z,100.00
2023-01-03T20:17:59.651Z,100.00
2023-01-03T20:20:30.302Z,100.00
2023-01-03T20:23:05.012Z,100.00
2023-01-03T20:25:33.527Z,100.00
2023-01-03T20:28:01.264Z,100.00
2023-01-03T20:30:30.485Z,100.00
2023-01-03T20:32:57.385Z,100.00
2023-01-03T20:36:08.382Z,100.00
2023-01-03T20:38:12.951Z,100.00
2023-01-03T20:40:39.617Z,100.00
2023-01-03T20:43:06.364Z,100.00
2023-01-03T20:45:33.476Z,100.00
2023-01-03T20:48:00.442Z,100.00
2023-01-03T20:50:28.693Z,100.00
2023-01-03T20:52:57.256Z,100.00
2023-01-03T20:55:26.815Z,100.00
2023-01-03T20:57:53.488Z,100.00
2023-01-03T21:00:32.415Z,100.00
2023-01-03T21:02:59.227Z,100.00
2023-01-03T21:05:26.381Z,100.00
2023-01-03T21:08:11.648Z,100.00
2023-01-03T21:10:44.226Z,100.00
2023-01-03T21:13:11.327Z,100.00
2023-01-03T21:15:38.414Z,100.00
2023-01-03T21:18:06.343Z,100.00
2023-01-03T21:20:33.378Z,100.00
2023-01-03T21:23:00.018Z,100.00
2023-01-03T21:25:35.632Z,100.00
2023-01-03T21:28:03.041Z,100.00
2023-01-03T21:30:31.624Z,100.00
2023-01-03T21:32:59.665Z,100.00
2023-01-03T21:35:26.588Z,100.00
2023-01-03T21:37:54.444Z,100.00
2023-01-03T21:40:22.606Z,100.00
2023-01-03T21:43:04.042Z,100.00
2023-01-03T21:45:36.334Z,100.00
2023-01-03T21:48:06.773Z,100.00
2023-01-03T21:50:37.115Z,100.00
2023-01-03T21:53:03.777Z,100.00
2023-01-03T21:55:33.147Z,100.00
2023-01-03T21:58:00.865Z,100.00
2023-01-03T22:00:27.468Z,100.00
2023-01-03T22:03:12.832Z,100.00
2023-01-03T22:05:39.489Z,100.00
2023-01-03T22:08:06.698Z,100.00
2023-01-03T22:10:34.426Z,100.00
2023-01-03T22:13:04.221Z,100.00
2023-01-03T22:15:30.962Z,100.00
2023-01-03T22:17:57.637Z,100.00
2023-01-03T22:20:26.374Z,100.00
2023-01-03T22:22:54.030Z,100.00
2023-01-03T22:25:23.858Z,100.00
2023-01-03T22:27:53.451Z,100.00
2023-01-03T22:30:20.642Z,100.00
2023-01-03T22:32:47.358Z,100.00
2023-01-03T22:35:16.680Z,100.00
2023-01-03T22:37:43.317Z,100.00
2023-01-03T22:40:15.568Z,100.00
2023-01-03T22:42:42.684Z,100.00
2023-01-03T22:45:10.248Z,100.00
2023-01-03T22:47:37.853Z,100.00
2023-01-03T22:50:05.661Z,100.00
2023-01-03T22:52:32.326Z,100.00
2023-01-03T22:54:59.065Z,100.00
2023-01-03T22:57:25.741Z,100.00
2023-01-03T22:59:52.361Z,100.00
2023-01-03T23:02:23.156Z,100.00
2023-01-03T23:04:52.970Z,100.00
2023-01-03T23:07:19.529Z,100.00
2023-01-03T23:09:46.127Z,100.00
2023-01-03T23:12:31.360Z,100.00
2023-01-03T23:14:57.962Z,100.00
2023-01-03T23:17:43.037Z,100.00
2023-01-03T23:20:10.318Z,100.00
2023-01-03T23:22:36.937Z,100.00
2023-01-03T23:25:03.661Z,100.00
2023-01-03T23:27:30.289Z,100.00
2023-01-03T23:29:56.942Z,100.00
2023-01-03T23:32:23.519Z,100.00
2023-01-03T23:34:50.141Z,100.00
2023-01-03T23:37:16.729Z,100.00
2023-01-03T23:39:43.716Z,100.00
2023-01-03T23:42:10.339Z,100.00
2023-01-03T23:44:36.933Z,100.00
2023-01-03T23:47:09.352Z,100.00
2023-01-03T23:49:38.396Z,100.00
2023-01-03T23:52:04.964Z,100.00
2023-01-03T23:54:31.612Z,100.00
2023-01-03T23:56:58.272Z,100.00
2023-01-03T23:59:24.846Z,100.00
